Time,TemperatureF,DewpointF,PressureIn,WindDirection,WindDirectionDegrees,WindSpeedMPH,WindSpeedGustMPH,Humidity,HourlyPrecipIn,Conditions,Clouds,dailyrainin,SoftwareType,DateUTC
2013-02-05 00:00:00,28.3,26.5,29.89,SSW,199,0.0,0.0,93,0.00,,,0.00,Wunderground v.1.15,2013-02-05 05:00:00,
2013-02-05 00:01:00,28.3,26.5,29.89,SSW,199,0.0,0.0,93,0.00,,,0.00,Wunderground v.1.15,2013-02-05 05:01:00,
2013-02-05 00:02:00,28.3,26.5,29.89,SSW,199,0.0,0.0,93,0.00,,,0.00,Wunderground v.1.15,2013-02-05 05:02:00,
2013-02-05 00:08:00,28.3,26.5,29.89,SSW,199,0.0,0.0,93,0.00,,,0.00,Wunderground v.1.15,2013-02-05 05:08:00,
2013-02-05 00:11:00,28.3,26.5,29.89,SSW,199,0.0,0.0,93,0.00,,,0.00,Wunderground v.1.15,2013-02-05 05:11:00,
2013-02-05 00:16:00,28.3,26.5,29.89,SSW,199,0.0,0.0,93,0.00,,,0.00,Wunderground v.1.15,2013-02-05 05:16:00,
2013-02-05 00:21:00,28.3,26.5,29.89,SSW,199,0.0,0.0,93,0.00,,,0.00,Wunderground v.1.15,2013-02-05 05:21:00,
2013-02-05 00:27:00,28.3,26.5,29.89,SSW,199,0.0,0.0,93,0.00,,,0.00,Wunderground v.1.15,2013-02-05 05:27:00,
2013-02-05 00:32:00,28.3,26.5,29.89,SSW,199,0.0,0.0,93,0.00,,,0.00,Wunderground v.1.15,2013-02-05 05:32:00,
2013-02-05 00:38:00,28.3,26.5,29.89,SSW,199,0.0,0.0,93,0.00,,,0.00,Wunderground v.1.15,2013-02-05 05:38:00,
2013-02-05 00:44:00,28.3,26.5,29.89,SSW,199,0.0,0.0,93,0.00,,,0.00,Wunderground v.1.15,2013-02-05 05:44:00,
2013-02-05 00:49:00,28.3,26.5,29.89,SSW,199,0.0,0.0,93,0.00,,,0.00,Wunderground v.1.15,2013-02-05 05:49:00,
2013-02-05 00:55:00,28.3,26.5,29.89,SSW,199,0.0,0.0,93,0.00,,,0.00,Wunderground v.1.15,2013-02-05 05:55:00,
2013-02-05 01:00:00,28.2,26.4,29.90,SSW,199,0.0,0.0,93,0.00,,,0.00,Wunderground v.1.15,2013-02-05 06:00:00,
2013-02-05 01:06:00,28.1,26.3,29.90,SSW,199,0.0,0.0,93,0.00,,,0.00,Wunderground v.1.15,2013-02-05 06:06:00,
2013-02-05 01:12:00,28.2,26.4,29.90,SSW,199,0.0,0.0,93,0.00,,,0.00,Wunderground v.1.15,2013-02-05 06:12:00,
2013-02-05 01:18:00,28.3,26.5,29.90,SSW,199,0.0,0.0,93,0.00,,,0.00,Wunderground v.1.15,2013-02-05 06:18:00,
2013-02-05 01:24:00,28.3,26.5,29.90,WSW,249,0.0,0.0,93,0.00,,,0.00,Wunderground v.1.15,2013-02-05 06:24:00,
2013-02-05 01:29:00,28.4,26.9,29.90,WNW,296,0.0,0.0,94,0.00,,,0.00,Wunderground v.1.15,2013-02-05 06:29:00,
2013-02-05 01:35:00,28.4,26.6,29.90,NW,323,0.0,3.0,93,0.00,,,0.00,Wunderground v.1.15,2013-02-05 06:35:00,
2013-02-05 01:40:00,28.3,26.5,29.90,NNW,330,2.0,3.0,93,0.00,,,0.00,Wunderground v.1.15,2013-02-05 06:40:00,
2013-02-05 01:46:00,28.3,26.5,29.90,NW,321,3.0,3.0,93,0.00,,,0.00,Wunderground v.1.15,2013-02-05 06:46:00,
2013-02-05 01:51:00,28.1,26.3,29.90,NNW,331,3.0,3.0,93,0.00,,,0.00,Wunderground v.1.15,2013-02-05 06:51:00,
2013-02-05 01:57:00,28.1,26.1,29.90,NW,325,2.0,3.0,92,0.00,,,0.00,Wunderground v.1.15,2013-02-05 06:57:00,
2013-02-05 02:04:00,27.9,25.9,29.91,NW,320,2.0,4.0,92,0.00,,,0.00,Wunderground v.1.15,2013-02-05 07:04:00,
2013-02-05 02:09:00,27.9,25.9,29.91,NW,322,2.0,4.0,92,0.00,,,0.00,Wunderground v.1.15,2013-02-05 07:09:00,
2013-02-05 02:14:00,27.8,25.8,29.91,NW,321,3.0,4.0,92,0.00,,,0.00,Wunderground v.1.15,2013-02-05 07:14:00,
2013-02-05 02:20:00,27.7,25.7,29.91,NW,322,3.0,4.0,92,0.00,,,0.00,Wunderground v.1.15,2013-02-05 07:20:00,
2013-02-05 02:25:00,27.6,25.3,29.91,NW,321,3.0,4.0,91,0.00,,,0.00,Wunderground v.1.15,2013-02-05 07:25:00,
2013-02-05 02:30:00,27.5,25.2,29.91,NW,321,3.0,4.0,91,0.00,,,0.00,Wunderground v.1.15,2013-02-05 07:30:00,
2013-02-05 02:36:00,27.4,25.1,29.91,NW,321,3.0,4.0,91,0.00,,,0.00,Wunderground v.1.15,2013-02-05 07:36:00,
2013-02-05 02:41:00,27.2,24.9,29.92,NW,321,3.0,5.0,91,0.00,,,0.00,Wunderground v.1.15,2013-02-05 07:41:00,
2013-02-05 02:46:00,27.2,24.9,29.92,NW,321,3.0,5.0,91,0.00,,,0.00,Wunderground v.1.15,2013-02-05 07:46:00,
2013-02-05 02:52:00,27.1,24.8,29.92,NW,325,3.0,5.0,91,0.00,,,0.00,Wunderground v.1.15,2013-02-05 07:52:00,
2013-02-05 02:57:00,26.9,24.4,29.91,NW,320,3.0,5.0,90,0.00,,,0.00,Wunderground v.1.15,2013-02-05 07:57:00,
2013-02-05 03:03:00,26.8,24.3,29.91,NW,320,3.0,4.0,90,0.00,,,0.00,Wunderground v.1.15,2013-02-05 08:03:00,
2013-02-05 03:09:00,26.7,24.4,29.92,NW,317,3.0,5.0,91,0.00,,,0.00,Wunderground v.1.15,2013-02-05 08:09:00,
2013-02-05 03:14:00,26.6,24.3,29.92,NW,322,4.0,5.0,91,0.00,,,0.00,Wunderground v.1.15,2013-02-05 08:14:00,
2013-02-05 03:20:00,26.5,24.2,29.91,NW,321,3.0,3.0,91,0.00,,,0.00,Wunderground v.1.15,2013-02-05 08:20:00,
2013-02-05 03:25:00,26.5,24.2,29.91,NW,321,2.0,3.0,91,0.00,,,0.00,Wunderground v.1.15,2013-02-05 08:25:00,
2013-02-05 03:31:00,26.5,24.2,29.91,NW,323,2.0,4.0,91,0.00,,,0.00,Wunderground v.1.15,2013-02-05 08:31:00,
2013-02-05 03:37:00,26.4,23.9,29.91,NW,322,3.0,5.0,90,0.00,,,0.00,Wunderground v.1.15,2013-02-05 08:37:00,
2013-02-05 03:42:00,26.3,24.0,29.91,NW,318,3.0,4.0,91,0.00,,,0.00,Wunderground v.1.15,2013-02-05 08:42:00,
2013-02-05 03:47:00,26.2,23.9,29.91,NNW,327,3.0,5.0,91,0.00,,,0.00,Wunderground v.1.15,2013-02-05 08:47:00,
2013-02-05 03:53:00,26.1,23.6,29.91,NNW,327,3.0,4.0,90,0.00,,,0.00,Wunderground v.1.15,2013-02-05 08:53:00,
2013-02-05 03:58:00,26.1,23.6,29.91,NW,320,3.0,5.0,90,0.00,,,0.00,Wunderground v.1.15,2013-02-05 08:58:00,
2013-02-05 04:04:00,26.0,23.5,29.91,NW,321,3.0,3.0,90,0.00,,,0.00,Wunderground v.1.15,2013-02-05 09:04:00,
2013-02-05 04:09:00,25.9,23.6,29.91,NW,320,3.0,5.0,91,0.00,,,0.00,Wunderground v.1.15,2013-02-05 09:09:00,
2013-02-05 04:14:00,25.8,23.5,29.90,NNW,329,4.0,6.0,91,0.00,,,0.00,Wunderground v.1.15,2013-02-05 09:14:00,
2013-02-05 04:19:00,25.8,23.3,29.90,NW,319,3.0,6.0,90,0.00,,,0.00,Wunderground v.1.15,2013-02-05 09:19:00,
2013-02-05 04:25:00,25.8,23.3,29.90,NW,323,3.0,5.0,90,0.00,,,0.00,Wunderground v.1.15,2013-02-05 09:25:00,
2013-02-05 04:30:00,25.7,23.4,29.90,NNW,329,2.0,2.0,91,0.00,,,0.00,Wunderground v.1.15,2013-02-05 09:30:00,
2013-02-05 04:36:00,25.7,23.4,29.90,NNW,327,0.0,3.0,91,0.00,,,0.00,Wunderground v.1.15,2013-02-05 09:36:00,
2013-02-05 04:41:00,25.6,23.1,29.90,NW,326,1.0,4.0,90,0.00,,,0.00,Wunderground v.1.15,2013-02-05 09:41:00,
2013-02-05 04:47:00,25.4,23.1,29.90,NNW,327,3.0,6.0,91,0.00,,,0.00,Wunderground v.1.15,2013-02-05 09:47:00,
2013-02-05 04:53:00,25.3,23.0,29.90,NW,313,4.0,4.0,91,0.00,,,0.00,Wunderground v.1.15,2013-02-05 09:53:00,
2013-02-05 04:58:00,25.3,23.0,29.90,NW,319,3.0,4.0,91,0.00,,,0.00,Wunderground v.1.15,2013-02-05 09:58:00,
2013-02-05 05:04:00,25.2,22.9,29.91,NW,320,2.0,4.0,91,0.00,,,0.00,Wunderground v.1.15,2013-02-05 10:04:00,
2013-02-05 05:10:00,25.2,22.9,29.91,NW,320,1.0,1.0,91,0.00,,,0.00,Wunderground v.1.15,2013-02-05 10:10:00,
2013-02-05 05:15:00,25.2,22.9,29.91,NW,324,2.0,4.0,91,0.00,,,0.00,Wunderground v.1.15,2013-02-05 10:15:00,
2013-02-05 05:21:00,25.1,22.8,29.92,NW,325,4.0,5.0,91,0.00,,,0.00,Wunderground v.1.15,2013-02-05 10:21:00,
2013-02-05 05:26:00,25.0,22.7,29.92,NW,323,4.0,5.0,91,0.00,,,0.00,Wunderground v.1.15,2013-02-05 10:26:00,
2013-02-05 05:31:00,24.9,22.6,29.92,NW,323,3.0,3.0,91,0.00,,,0.00,Wunderground v.1.15,2013-02-05 10:31:00,
2013-02-05 05:37:00,24.8,22.5,29.92,NW,320,2.0,4.0,91,0.00,,,0.00,Wunderground v.1.15,2013-02-05 10:37:00,
2013-02-05 05:42:00,24.7,22.4,29.92,NW,320,2.0,3.0,91,0.00,,,0.00,Wunderground v.1.15,2013-02-05 10:42:00,
2013-02-05 05:47:00,24.6,22.3,29.91,NW,321,2.0,3.0,91,0.00,,,0.00,Wunderground v.1.15,2013-02-05 10:47:00,
2013-02-05 05:54:00,24.5,22.2,29.91,NW,322,3.0,3.0,91,0.00,,,0.00,Wunderground v.1.15,2013-02-05 10:54:00,
2013-02-05 05:59:00,24.5,22.2,29.91,NW,322,3.0,4.0,91,0.00,,,0.00,Wunderground v.1.15,2013-02-05 10:59:00,
2013-02-05 06:04:00,24.4,22.2,29.90,NW,322,2.0,3.0,91,0.00,,,0.00,Wunderground v.1.15,2013-02-05 11:04:00,
2013-02-05 06:09:00,24.4,22.2,29.91,NW,321,2.0,3.0,91,0.00,,,0.00,Wunderground v.1.15,2013-02-05 11:09:00,
2013-02-05 06:14:00,24.4,22.2,29.90,NW,321,1.0,2.0,91,0.00,,,0.00,Wunderground v.1.15,2013-02-05 11:14:00,
2013-02-05 06:20:00,24.3,22.1,29.90,NW,323,1.0,1.0,91,0.00,,,0.00,Wunderground v.1.15,2013-02-05 11:20:00,
2013-02-05 06:25:00,24.3,22.1,29.90,NW,321,2.0,5.0,91,0.00,,,0.00,Wunderground v.1.15,2013-02-05 11:25:00,
2013-02-05 06:31:00,24.2,22.2,29.90,NNW,335,1.0,1.0,92,0.00,,,0.00,Wunderground v.1.15,2013-02-05 11:31:00,
2013-02-05 06:37:00,24.2,22.0,29.90,NNW,332,1.0,3.0,91,0.00,,,0.00,Wunderground v.1.15,2013-02-05 11:37:00,
2013-02-05 06:42:00,24.2,22.2,29.90,NNW,329,1.0,3.0,92,0.00,,,0.00,Wunderground v.1.15,2013-02-05 11:42:00,
2013-02-05 06:49:00,24.1,22.1,29.91,NNW,329,1.0,3.0,92,0.00,,,0.00,Wunderground v.1.15,2013-02-05 11:49:00,
2013-02-05 06:54:00,24.0,21.8,29.92,NW,325,2.0,4.0,91,0.00,,,0.00,Wunderground v.1.15,2013-02-05 11:54:00,
2013-02-05 06:59:00,24.0,22.0,29.91,NW,323,3.0,4.0,92,0.00,,,0.00,Wunderground v.1.15,2013-02-05 11:59:00,
2013-02-05 07:05:00,24.0,22.0,29.91,NW,324,2.0,4.0,92,0.00,,,0.00,Wunderground v.1.15,2013-02-05 12:05:00,
2013-02-05 07:11:00,24.0,21.8,29.92,NW,324,2.0,3.0,91,0.00,,,0.00,Wunderground v.1.15,2013-02-05 12:11:00,
2013-02-05 07:16:00,24.0,22.0,29.91,NNW,329,2.0,4.0,92,0.00,,,0.00,Wunderground v.1.15,2013-02-05 12:16:00,
2013-02-05 07:22:00,23.9,21.7,29.91,NW,325,3.0,3.0,91,0.00,,,0.00,Wunderground v.1.15,2013-02-05 12:22:00,
2013-02-05 07:27:00,23.9,21.9,29.91,NW,325,1.0,3.0,92,0.00,,,0.00,Wunderground v.1.15,2013-02-05 12:27:00,
2013-02-05 07:32:00,23.9,21.9,29.91,NW,325,0.0,2.0,92,0.00,,,0.00,Wunderground v.1.15,2013-02-05 12:32:00,
2013-02-05 07:38:00,23.9,21.9,29.91,NW,325,1.0,2.0,92,0.00,,,0.00,Wunderground v.1.15,2013-02-05 12:38:00,
2013-02-05 07:43:00,23.8,21.8,29.92,NW,324,2.0,4.0,92,0.00,,,0.00,Wunderground v.1.15,2013-02-05 12:43:00,
2013-02-05 07:49:00,23.9,21.9,29.92,NW,324,3.0,4.0,92,0.00,,,0.00,Wunderground v.1.15,2013-02-05 12:49:00,
2013-02-05 07:55:00,23.9,21.9,29.93,NW,323,2.0,3.0,92,0.00,,,0.00,Wunderground v.1.15,2013-02-05 12:55:00,
2013-02-05 08:00:00,23.9,21.9,29.94,NW,320,3.0,3.0,92,0.00,,,0.00,Wunderground v.1.15,2013-02-05 13:00:00,
2013-02-05 08:06:00,23.9,21.9,29.94,NNW,333,3.0,5.0,92,0.00,,,0.00,Wunderground v.1.15,2013-02-05 13:06:00,
2013-02-05 08:12:00,23.9,21.7,29.94,NW,325,3.0,4.0,91,0.00,,,0.00,Wunderground v.1.15,2013-02-05 13:12:00,
2013-02-05 08:17:00,23.8,21.6,29.94,NW,326,2.0,4.0,91,0.00,,,0.00,Wunderground v.1.15,2013-02-05 13:17:00,
2013-02-05 08:23:00,23.9,21.7,29.94,NW,326,1.0,1.0,91,0.00,,,0.00,Wunderground v.1.15,2013-02-05 13:23:00,
2013-02-05 08:29:00,23.9,21.7,29.94,NW,325,1.0,3.0,91,0.00,,,0.00,Wunderground v.1.15,2013-02-05 13:29:00,
2013-02-05 08:34:00,24.0,21.8,29.93,NW,323,2.0,4.0,91,0.00,,,0.00,Wunderground v.1.15,2013-02-05 13:34:00,
2013-02-05 08:39:00,24.0,21.8,29.93,NW,322,2.0,4.0,91,0.00,,,0.00,Wunderground v.1.15,2013-02-05 13:39:00,
2013-02-05 08:45:00,24.1,21.9,29.93,NW,322,1.0,2.0,91,0.00,,,0.00,Wunderground v.1.15,2013-02-05 13:45:00,
2013-02-05 08:50:00,24.1,21.6,29.93,NW,322,2.0,2.0,90,0.00,,,0.00,Wunderground v.1.15,2013-02-05 13:50:00,
2013-02-05 08:56:00,24.1,21.6,29.93,NW,322,1.0,2.0,90,0.00,,,0.00,Wunderground v.1.15,2013-02-05 13:56:00,
2013-02-05 09:01:00,24.2,21.7,29.93,NW,322,0.0,1.0,90,0.00,,,0.00,Wunderground v.1.15,2013-02-05 14:01:00,
2013-02-05 09:07:00,24.2,21.4,29.94,NW,325,1.0,4.0,89,0.00,,,0.00,Wunderground v.1.15,2013-02-05 14:07:00,
2013-02-05 09:12:00,24.1,21.3,29.94,NW,326,3.0,5.0,89,0.00,,,0.00,Wunderground v.1.15,2013-02-05 14:12:00,
2013-02-05 09:18:00,24.2,21.7,29.94,NNW,333,4.0,6.0,90,0.00,,,0.00,Wunderground v.1.15,2013-02-05 14:18:00,
2013-02-05 09:24:00,24.3,21.5,29.95,NNW,327,4.0,5.0,89,0.00,,,0.00,Wunderground v.1.15,2013-02-05 14:24:00,
2013-02-05 09:29:00,24.5,21.7,29.95,NW,323,4.0,5.0,89,0.00,,,0.00,Wunderground v.1.15,2013-02-05 14:29:00,
2013-02-05 09:34:00,24.6,21.8,29.95,NW,325,4.0,5.0,89,0.00,,,0.00,Wunderground v.1.15,2013-02-05 14:34:00,
2013-02-05 09:39:00,24.7,21.9,29.95,NNW,327,4.0,5.0,89,0.00,,,0.00,Wunderground v.1.15,2013-02-05 14:39:00,
2013-02-05 09:45:00,24.6,21.8,29.95,NW,314,4.0,5.0,89,0.00,,,0.00,Wunderground v.1.15,2013-02-05 14:45:00,
2013-02-05 09:50:00,24.7,21.9,29.95,NNW,333,3.0,4.0,89,0.00,,,0.00,Wunderground v.1.15,2013-02-05 14:50:00,
2013-02-05 09:56:00,24.8,22.0,29.96,NNW,334,4.0,6.0,89,0.00,,,0.00,Wunderground v.1.15,2013-02-05 14:56:00,
2013-02-05 10:02:00,25.0,21.9,29.95,NW,312,4.0,4.0,88,0.00,,,0.00,Wunderground v.1.15,2013-02-05 15:02:00,
2013-02-05 10:07:00,25.0,21.9,29.95,NW,309,4.0,7.0,88,0.00,,,0.00,Wunderground v.1.15,2013-02-05 15:07:00,
2013-02-05 10:12:00,25.1,22.0,29.95,NNW,336,4.0,4.0,88,0.00,,,0.00,Wunderground v.1.15,2013-02-05 15:12:00,
2013-02-05 10:19:00,25.2,21.9,29.95,NW,315,3.0,4.0,87,0.00,,,0.00,Wunderground v.1.15,2013-02-05 15:19:00,
2013-02-05 10:24:00,25.4,22.1,29.95,NNW,331,2.0,3.0,87,0.00,,,0.00,Wunderground v.1.15,2013-02-05 15:24:00,
2013-02-05 10:30:00,25.7,22.4,29.96,NW,317,2.0,2.0,87,0.00,,,0.00,Wunderground v.1.15,2013-02-05 15:30:00,
2013-02-05 10:36:00,25.7,22.1,29.96,NW,320,2.0,5.0,86,0.00,,,0.00,Wunderground v.1.15,2013-02-05 15:36:00,
2013-02-05 10:41:00,25.8,22.2,29.96,NW,325,3.0,4.0,86,0.00,,,0.00,Wunderground v.1.15,2013-02-05 15:41:00,
2013-02-05 10:46:00,26.0,22.4,29.96,NW,311,3.0,4.0,86,0.00,,,0.00,Wunderground v.1.15,2013-02-05 15:46:00,
2013-02-05 10:52:00,26.1,22.5,29.96,NW,310,2.0,4.0,86,0.00,,,0.00,Wunderground v.1.15,2013-02-05 15:52:00,
2013-02-05 10:57:00,25.9,22.0,29.96,NW,311,3.0,4.0,85,0.00,,,0.00,Wunderground v.1.15,2013-02-05 15:57:00,
2013-02-05 11:02:00,25.8,21.9,29.96,NW,313,3.0,3.0,85,0.00,,,0.00,Wunderground v.1.15,2013-02-05 16:02:00,
2013-02-05 11:08:00,26.1,22.2,29.96,WNW,300,3.0,6.0,85,0.00,,,0.00,Wunderground v.1.15,2013-02-05 16:08:00,
2013-02-05 11:14:00,26.1,22.2,29.95,NW,320,4.0,5.0,85,0.00,,,0.00,Wunderground v.1.15,2013-02-05 16:14:00,
2013-02-05 11:19:00,26.3,22.7,29.95,NW,320,2.0,5.0,86,0.00,,,0.00,Wunderground v.1.15,2013-02-05 16:19:00,
2013-02-05 11:25:00,26.4,22.5,29.96,NW,313,2.0,4.0,85,0.00,,,0.00,Wunderground v.1.15,2013-02-05 16:25:00,
2013-02-05 11:30:00,26.3,22.1,29.96,NW,318,3.0,3.0,84,0.00,,,0.00,Wunderground v.1.15,2013-02-05 16:30:00,
2013-02-05 11:36:00,26.5,22.3,29.95,NW,313,2.0,3.0,84,0.00,,,0.00,Wunderground v.1.15,2013-02-05 16:36:00,
2013-02-05 11:42:00,26.7,22.5,29.95,WNW,299,2.0,6.0,84,0.00,,,0.00,Wunderground v.1.15,2013-02-05 16:42:00,
2013-02-05 11:47:00,27.0,22.8,29.95,NW,318,2.0,6.0,84,0.00,,,0.00,Wunderground v.1.15,2013-02-05 16:47:00,
2013-02-05 11:52:00,26.9,22.4,29.95,NW,314,3.0,4.0,83,0.00,,,0.00,Wunderground v.1.15,2013-02-05 16:52:00,
2013-02-05 11:59:00,27.2,23.0,29.95,NW,312,2.0,5.0,84,0.00,,,0.00,Wunderground v.1.15,2013-02-05 16:59:00,
2013-02-05 12:04:00,27.1,22.3,29.95,NW,314,3.0,7.0,82,0.00,,,0.00,Wunderground v.1.15,2013-02-05 17:04:00,
2013-02-05 12:10:00,27.2,22.7,29.94,NW,314,3.0,3.0,83,0.00,,,0.00,Wunderground v.1.15,2013-02-05 17:10:00,
2013-02-05 12:15:00,27.4,22.9,29.94,WNW,298,2.0,6.0,83,0.00,,,0.00,Wunderground v.1.15,2013-02-05 17:15:00,
2013-02-05 12:21:00,27.5,22.7,29.94,NW,309,3.0,5.0,82,0.00,,,0.00,Wunderground v.1.15,2013-02-05 17:21:00,
2013-02-05 12:27:00,27.7,23.2,29.93,NW,314,2.0,5.0,83,0.00,,,0.00,Wunderground v.1.15,2013-02-05 17:27:00,
2013-02-05 12:32:00,27.9,22.8,29.93,NW,319,1.0,2.0,81,0.00,,,0.00,Wunderground v.1.15,2013-02-05 17:32:00,
2013-02-05 12:37:00,27.9,23.1,29.93,NW,319,2.0,3.0,82,0.00,,,0.00,Wunderground v.1.15,2013-02-05 17:37:00,
2013-02-05 12:43:00,28.3,23.5,29.93,SW,230,1.0,2.0,82,0.00,,,0.00,Wunderground v.1.15,2013-02-05 17:43:00,
2013-02-05 12:49:00,28.6,23.5,29.92,SSW,200,1.0,7.0,81,0.00,,,0.00,Wunderground v.1.15,2013-02-05 17:49:00,
2013-02-05 12:54:00,28.4,23.0,29.92,SW,223,3.0,5.0,80,0.00,,,0.00,Wunderground v.1.15,2013-02-05 17:54:00,
2013-02-05 13:00:00,28.6,23.2,29.92,West,279,2.0,2.0,80,0.00,,,0.00,Wunderground v.1.15,2013-02-05 18:00:00,
2013-02-05 13:06:00,28.8,22.8,29.91,SSW,207,1.0,7.0,78,0.00,,,0.01,Wunderground v.1.15,2013-02-05 18:06:00,
2013-02-05 13:11:00,28.8,23.1,29.91,SSW,211,1.0,1.0,79,0.00,,,0.01,Wunderground v.1.15,2013-02-05 18:11:00,
2013-02-05 13:16:00,29.1,23.7,29.91,SW,214,1.0,1.0,80,0.00,,,0.01,Wunderground v.1.15,2013-02-05 18:16:00,
2013-02-05 13:22:00,29.3,23.6,29.91,SSW,202,1.0,3.0,79,0.00,,,0.01,Wunderground v.1.15,2013-02-05 18:22:00,
2013-02-05 13:27:00,29.3,23.3,29.91,SW,229,1.0,3.0,78,0.00,,,0.01,Wunderground v.1.15,2013-02-05 18:27:00,
2013-02-05 13:34:00,29.2,23.5,29.91,SSW,202,2.0,4.0,79,0.00,,,0.01,Wunderground v.1.15,2013-02-05 18:34:00,
2013-02-05 13:39:00,28.7,23.0,29.90,SW,233,2.0,5.0,79,0.00,,,0.02,Wunderground v.1.15,2013-02-05 18:39:00,
2013-02-05 13:44:00,28.7,23.0,29.90,WSW,240,2.0,3.0,79,0.11,,,0.03,Wunderground v.1.15,2013-02-05 18:44:00,
2013-02-05 13:50:00,28.6,22.9,29.91,SSW,209,2.0,2.0,79,0.05,,,0.03,Wunderground v.1.15,2013-02-05 18:50:00,
2013-02-05 13:56:00,28.3,22.6,29.90,SSW,194,3.0,8.0,79,0.04,,,0.03,Wunderground v.1.15,2013-02-05 18:56:00,
2013-02-05 14:01:00,28.5,22.8,29.91,West,274,2.0,2.0,79,0.00,,,0.03,Wunderground v.1.15,2013-02-05 19:01:00,
2013-02-05 14:07:00,28.7,23.0,29.91,SE,140,1.0,4.0,79,0.00,,,0.03,Wunderground v.1.15,2013-02-05 19:07:00,
2013-02-05 14:12:00,28.7,22.7,29.91,SW,221,2.0,3.0,78,0.00,,,0.03,Wunderground v.1.15,2013-02-05 19:12:00,
2013-02-05 14:18:00,28.7,22.7,29.91,South,186,2.0,5.0,78,0.00,,,0.03,Wunderground v.1.15,2013-02-05 19:18:00,
2013-02-05 14:24:00,28.7,22.7,29.91,SSW,209,1.0,2.0,78,0.00,,,0.03,Wunderground v.1.15,2013-02-05 19:24:00,
2013-02-05 14:29:00,28.7,22.7,29.91,NW,309,1.0,2.0,78,0.00,,,0.03,Wunderground v.1.15,2013-02-05 19:29:00,
2013-02-05 14:35:00,28.7,22.7,29.91,SSW,195,1.0,4.0,78,0.00,,,0.03,Wunderground v.1.15,2013-02-05 19:35:00,
2013-02-05 14:40:00,28.6,22.6,29.91,SSW,193,2.0,3.0,78,0.00,,,0.03,Wunderground v.1.15,2013-02-05 19:40:00,
2013-02-05 14:45:00,28.7,23.0,29.91,SSE,165,2.0,3.0,79,0.00,,,0.03,Wunderground v.1.15,2013-02-05 19:45:00,
2013-02-05 14:51:00,28.7,22.7,29.91,WSW,244,2.0,2.0,78,0.00,,,0.03,Wunderground v.1.15,2013-02-05 19:51:00,
2013-02-05 14:56:00,28.8,22.8,29.91,SSW,196,2.0,3.0,78,0.00,,,0.04,Wunderground v.1.15,2013-02-05 19:56:00,
2013-02-05 15:01:00,28.9,22.6,29.90,South,178,2.0,2.0,77,0.00,,,0.04,Wunderground v.1.15,2013-02-05 20:01:00,
2013-02-05 15:06:00,29.0,23.0,29.91,West,263,1.0,4.0,78,0.00,,,0.04,Wunderground v.1.15,2013-02-05 20:06:00,
2013-02-05 15:12:00,29.0,23.0,29.91,SW,215,3.0,6.0,78,0.04,,,0.05,Wunderground v.1.15,2013-02-05 20:12:00,
2013-02-05 15:17:00,29.0,23.0,29.91,SSW,202,3.0,6.0,78,0.04,,,0.05,Wunderground v.1.15,2013-02-05 20:17:00,
2013-02-05 15:23:00,29.2,23.2,29.91,SSW,209,2.0,5.0,78,0.04,,,0.05,Wunderground v.1.15,2013-02-05 20:23:00,
2013-02-05 15:28:00,29.1,22.8,29.91,SSW,192,3.0,5.0,77,0.00,,,0.05,Wunderground v.1.15,2013-02-05 20:28:00,
2013-02-05 15:34:00,29.0,22.7,29.91,SSW,213,4.0,6.0,77,0.00,,,0.05,Wunderground v.1.15,2013-02-05 20:34:00,
2013-02-05 15:39:00,29.1,23.1,29.91,South,169,2.0,6.0,78,0.00,,,0.05,Wunderground v.1.15,2013-02-05 20:39:00,
2013-02-05 15:45:00,29.2,23.2,29.90,SSW,198,1.0,4.0,78,0.00,,,0.05,Wunderground v.1.15,2013-02-05 20:45:00,
2013-02-05 15:50:00,29.3,23.3,29.90,SSW,211,2.0,2.0,78,0.00,,,0.05,Wunderground v.1.15,2013-02-05 20:50:00,
2013-02-05 15:56:00,29.3,23.3,29.90,SSE,152,2.0,2.0,78,0.00,,,0.05,Wunderground v.1.15,2013-02-05 20:56:00,
2013-02-05 16:02:00,29.5,23.8,29.90,South,186,1.0,5.0,79,0.00,,,0.05,Wunderground v.1.15,2013-02-05 21:02:00,
2013-02-05 16:09:00,29.4,23.4,29.90,SE,133,2.0,7.0,78,0.00,,,0.05,Wunderground v.1.15,2013-02-05 21:09:00,
2013-02-05 16:14:00,29.4,23.1,29.89,SE,132,2.0,4.0,77,0.00,,,0.05,Wunderground v.1.15,2013-02-05 21:14:00,
2013-02-05 16:19:00,29.5,23.2,29.89,SE,140,2.0,4.0,77,0.00,,,0.05,Wunderground v.1.15,2013-02-05 21:19:00,
2013-02-05 16:25:00,29.5,23.5,29.89,SSW,196,2.0,4.0,78,0.00,,,0.05,Wunderground v.1.15,2013-02-05 21:25:00,
2013-02-05 16:31:00,29.5,23.5,29.89,SSE,161,1.0,1.0,78,0.00,,,0.05,Wunderground v.1.15,2013-02-05 21:31:00,
2013-02-05 16:36:00,29.6,23.3,29.89,SSE,150,1.0,1.0,77,0.00,,,0.05,Wunderground v.1.15,2013-02-05 21:36:00,
2013-02-05 16:42:00,29.6,23.6,29.88,South,184,1.0,1.0,78,0.00,,,0.05,Wunderground v.1.15,2013-02-05 21:42:00,
2013-02-05 16:47:00,29.6,23.3,29.88,South,179,0.0,1.0,77,0.00,,,0.05,Wunderground v.1.15,2013-02-05 21:47:00,
2013-02-05 16:54:00,29.7,23.7,29.88,SSE,168,0.0,1.0,78,0.00,,,0.05,Wunderground v.1.15,2013-02-05 21:54:00,
2013-02-05 16:59:00,29.8,23.5,29.89,SE,130,1.0,4.0,77,0.00,,,0.05,Wunderground v.1.15,2013-02-05 21:59:00,
2013-02-05 17:04:00,29.9,23.3,29.89,SSE,161,3.0,5.0,76,0.00,,,0.05,Wunderground v.1.15,2013-02-05 22:04:00,
2013-02-05 17:10:00,29.9,23.3,29.88,South,169,3.0,3.0,76,0.00,,,0.05,Wunderground v.1.15,2013-02-05 22:10:00,
2013-02-05 17:16:00,29.9,23.6,29.89,South,184,3.0,5.0,77,0.00,,,0.05,Wunderground v.1.15,2013-02-05 22:16:00,
2013-02-05 17:21:00,29.9,23.9,29.88,ESE,113,2.0,2.0,78,0.00,,,0.05,Wunderground v.1.15,2013-02-05 22:21:00,
2013-02-05 17:27:00,29.9,23.6,29.88,SSE,161,1.0,3.0,77,0.00,,,0.05,Wunderground v.1.15,2013-02-05 22:27:00,
2013-02-05 17:32:00,29.9,23.9,29.89,SSE,155,2.0,4.0,78,0.00,,,0.05,Wunderground v.1.15,2013-02-05 22:32:00,
2013-02-05 17:39:00,29.9,23.9,29.89,SSE,159,2.0,4.0,78,0.00,,,0.05,Wunderground v.1.15,2013-02-05 22:39:00,
2013-02-05 17:44:00,29.9,23.9,29.89,SSE,167,1.0,2.0,78,0.00,,,0.05,Wunderground v.1.15,2013-02-05 22:44:00,
2013-02-05 17:49:00,29.9,23.9,29.89,SSE,158,1.0,2.0,78,0.00,,,0.05,Wunderground v.1.15,2013-02-05 22:49:00,
2013-02-05 17:55:00,30.0,24.3,29.89,SSE,164,0.0,1.0,79,0.00,,,0.05,Wunderground v.1.15,2013-02-05 22:55:00,
2013-02-05 18:00:00,29.9,23.9,29.89,SSE,157,1.0,1.0,78,0.00,,,0.05,Wunderground v.1.15,2013-02-05 23:00:00,
2013-02-05 18:06:00,30.0,24.6,29.89,South,185,2.0,4.0,80,0.00,,,0.05,Wunderground v.1.15,2013-02-05 23:06:00,
2013-02-05 18:12:00,30.0,24.3,29.89,SSE,166,1.0,4.0,79,0.00,,,0.05,Wunderground v.1.15,2013-02-05 23:12:00,
2013-02-05 18:17:00,30.0,24.6,29.89,SSE,166,0.0,4.0,80,0.00,,,0.05,Wunderground v.1.15,2013-02-05 23:17:00,
2013-02-05 18:24:00,29.9,24.5,29.89,SSE,166,0.0,0.0,80,0.00,,,0.05,Wunderground v.1.15,2013-02-05 23:24:00,
2013-02-05 18:29:00,29.9,24.5,29.89,SSE,155,0.0,2.0,80,0.00,,,0.05,Wunderground v.1.15,2013-02-05 23:29:00,
2013-02-05 18:34:00,29.8,24.7,29.89,South,183,0.0,3.0,81,0.00,,,0.05,Wunderground v.1.15,2013-02-05 23:34:00,
2013-02-05 18:39:00,29.8,24.7,29.89,South,187,0.0,3.0,81,0.00,,,0.05,Wunderground v.1.15,2013-02-05 23:39:00,
2013-02-05 18:45:00,29.8,24.7,29.90,South,169,0.0,0.0,81,0.00,,,0.05,Wunderground v.1.15,2013-02-05 23:45:00,
2013-02-05 18:50:00,29.7,24.6,29.89,SSE,166,0.0,0.0,81,0.00,,,0.05,Wunderground v.1.15,2013-02-05 23:50:00,
2013-02-05 18:56:00,29.7,24.6,29.90,SSE,166,0.0,1.0,81,0.00,,,0.05,Wunderground v.1.15,2013-02-05 23:56:00,
2013-02-05 19:02:00,29.6,24.8,29.90,SSE,163,0.0,0.0,82,0.00,,,0.05,Wunderground v.1.15,2013-02-06 00:02:00,
2013-02-05 19:08:00,29.5,24.7,29.90,SSE,162,0.0,1.0,82,0.00,,,0.05,Wunderground v.1.15,2013-02-06 00:08:00,
2013-02-05 19:13:00,29.5,24.7,29.91,SSE,162,0.0,0.0,82,0.00,,,0.05,Wunderground v.1.15,2013-02-06 00:13:00,
2013-02-05 19:19:00,29.4,24.6,29.91,SSE,163,0.0,0.0,82,0.00,,,0.05,Wunderground v.1.15,2013-02-06 00:19:00,
2013-02-05 19:25:00,29.2,24.4,29.92,SSE,163,0.0,0.0,82,0.00,,,0.05,Wunderground v.1.15,2013-02-06 00:25:00,
2013-02-05 19:30:00,29.1,24.3,29.92,SSE,162,0.0,0.0,82,0.00,,,0.05,Wunderground v.1.15,2013-02-06 00:30:00,
2013-02-05 19:35:00,29.0,24.5,29.92,SSE,163,0.0,0.0,83,0.00,,,0.05,Wunderground v.1.15,2013-02-06 00:35:00,
2013-02-05 19:40:00,29.0,24.5,29.92,SSE,163,0.0,0.0,83,0.00,,,0.05,Wunderground v.1.15,2013-02-06 00:40:00,
2013-02-05 19:46:00,29.0,24.8,29.93,SSE,163,0.0,0.0,84,0.00,,,0.05,Wunderground v.1.15,2013-02-06 00:46:00,
2013-02-05 19:52:00,28.8,24.9,29.93,SSE,163,0.0,0.0,85,0.00,,,0.05,Wunderground v.1.15,2013-02-06 00:52:00,
2013-02-05 19:57:00,28.8,24.9,29.93,SSE,162,0.0,0.0,85,0.00,,,0.05,Wunderground v.1.15,2013-02-06 00:57:00,
2013-02-05 20:02:00,28.8,25.4,29.93,SSE,163,0.0,0.0,87,0.00,,,0.05,Wunderground v.1.15,2013-02-06 01:02:00,
2013-02-05 20:08:00,28.8,25.4,29.94,SSE,162,0.0,0.0,87,0.00,,,0.05,Wunderground v.1.15,2013-02-06 01:08:00,
2013-02-05 20:13:00,28.8,25.7,29.94,SW,229,0.0,0.0,88,0.00,,,0.05,Wunderground v.1.15,2013-02-06 01:13:00,
2013-02-05 20:19:00,28.9,25.8,29.94,SW,229,0.0,0.0,88,0.00,,,0.05,Wunderground v.1.15,2013-02-06 01:19:00,
2013-02-05 20:24:00,28.9,26.1,29.95,SW,229,0.0,0.0,89,0.00,,,0.05,Wunderground v.1.15,2013-02-06 01:24:00,
2013-02-05 20:29:00,28.9,26.1,29.95,SW,229,0.0,0.0,89,0.00,,,0.05,Wunderground v.1.15,2013-02-06 01:29:00,
2013-02-05 20:35:00,28.9,26.1,29.95,SW,229,0.0,0.0,89,0.00,,,0.05,Wunderground v.1.15,2013-02-06 01:35:00,
2013-02-05 20:40:00,29.0,26.4,29.95,SW,226,0.0,0.0,90,0.00,,,0.05,Wunderground v.1.15,2013-02-06 01:40:00,
2013-02-05 20:45:00,29.0,26.4,29.95,SW,226,0.0,0.0,90,0.00,,,0.05,Wunderground v.1.15,2013-02-06 01:45:00,
2013-02-05 20:51:00,29.1,26.3,29.95,SW,226,0.0,0.0,89,0.00,,,0.05,Wunderground v.1.15,2013-02-06 01:51:00,
2013-02-05 20:56:00,29.2,26.4,29.95,SW,226,0.0,0.0,89,0.00,,,0.05,Wunderground v.1.15,2013-02-06 01:56:00,
2013-02-05 21:01:00,29.2,26.4,29.95,SW,226,0.0,0.0,89,0.00,,,0.05,Wunderground v.1.15,2013-02-06 02:01:00,
2013-02-05 21:07:00,29.2,26.4,29.95,SW,226,0.0,0.0,89,0.00,,,0.05,Wunderground v.1.15,2013-02-06 02:07:00,
2013-02-05 21:12:00,29.2,26.4,29.95,SW,226,0.0,0.0,89,0.00,,,0.05,Wunderground v.1.15,2013-02-06 02:12:00,
2013-02-05 21:17:00,29.2,26.6,29.95,SW,226,0.0,0.0,90,0.00,,,0.05,Wunderground v.1.15,2013-02-06 02:17:00,
2013-02-05 21:23:00,29.2,26.6,29.95,SW,226,0.0,0.0,90,0.00,,,0.05,Wunderground v.1.15,2013-02-06 02:23:00,
2013-02-05 21:29:00,29.3,26.5,29.95,SW,226,0.0,0.0,89,0.00,,,0.05,Wunderground v.1.15,2013-02-06 02:29:00,
2013-02-05 21:34:00,29.3,26.7,29.95,SW,226,0.0,0.0,90,0.00,,,0.05,Wunderground v.1.15,2013-02-06 02:34:00,
2013-02-05 21:39:00,29.3,26.5,29.96,SW,226,0.0,0.0,89,0.00,,,0.05,Wunderground v.1.15,2013-02-06 02:39:00,
2013-02-05 21:45:00,29.3,26.5,29.96,SW,226,0.0,0.0,89,0.00,,,0.05,Wunderground v.1.15,2013-02-06 02:45:00,
2013-02-05 21:50:00,29.4,26.6,29.96,SW,226,0.0,0.0,89,0.00,,,0.05,Wunderground v.1.15,2013-02-06 02:50:00,
2013-02-05 21:55:00,29.4,26.6,29.97,SW,226,0.0,0.0,89,0.00,,,0.05,Wunderground v.1.15,2013-02-06 02:55:00,
2013-02-05 22:00:00,29.4,26.6,29.97,SW,226,0.0,0.0,89,0.00,,,0.05,Wunderground v.1.15,2013-02-06 03:00:00,
2013-02-05 22:06:00,29.5,26.7,29.97,SW,226,0.0,0.0,89,0.00,,,0.05,Wunderground v.1.15,2013-02-06 03:06:00,
2013-02-05 22:11:00,29.5,26.7,29.97,SW,226,0.0,0.0,89,0.00,,,0.05,Wunderground v.1.15,2013-02-06 03:11:00,
2013-02-05 22:16:00,29.6,26.8,29.98,SW,226,0.0,0.0,89,0.00,,,0.05,Wunderground v.1.15,2013-02-06 03:16:00,
2013-02-05 22:22:00,29.7,26.9,29.98,SW,226,0.0,0.0,89,0.00,,,0.05,Wunderground v.1.15,2013-02-06 03:22:00,
2013-02-05 22:27:00,29.8,27.0,29.98,SW,226,0.0,0.0,89,0.00,,,0.05,Wunderground v.1.15,2013-02-06 03:27:00,
2013-02-05 22:33:00,30.2,27.3,29.98,West,263,0.0,3.0,89,0.00,,,0.05,Wunderground v.1.15,2013-02-06 03:33:00,
2013-02-05 22:39:00,30.4,27.5,29.99,West,272,0.0,3.0,89,0.00,,,0.05,Wunderground v.1.15,2013-02-06 03:39:00,
2013-02-05 22:45:00,30.7,27.8,29.98,WNW,301,0.0,2.0,89,0.00,,,0.05,Wunderground v.1.15,2013-02-06 03:45:00,
2013-02-05 22:50:00,31.0,28.1,29.99,WNW,301,0.0,2.0,89,0.00,,,0.05,Wunderground v.1.15,2013-02-06 03:50:00,
2013-02-05 22:55:00,31.3,28.4,29.99,NW,309,2.0,5.0,89,0.00,,,0.05,Wunderground v.1.15,2013-02-06 03:55:00,
2013-02-05 23:00:00,31.4,28.5,29.99,NW,317,3.0,4.0,89,0.00,,,0.05,Wunderground v.1.15,2013-02-06 04:00:00,
2013-02-05 23:06:00,31.5,28.6,29.99,NW,305,3.0,4.0,89,0.00,,,0.05,Wunderground v.1.15,2013-02-06 04:06:00,
2013-02-05 23:11:00,31.6,28.7,29.99,NW,305,2.0,2.0,89,0.00,,,0.05,Wunderground v.1.15,2013-02-06 04:11:00,
2013-02-05 23:16:00,31.6,28.7,29.99,NW,312,1.0,3.0,89,0.00,,,0.05,Wunderground v.1.15,2013-02-06 04:16:00,
2013-02-05 23:22:00,31.6,28.7,29.99,NW,312,2.0,2.0,89,0.00,,,0.05,Wunderground v.1.15,2013-02-06 04:22:00,
2013-02-05 23:27:00,31.6,28.7,29.99,NW,313,2.0,3.0,89,0.00,,,0.05,Wunderground v.1.15,2013-02-06 04:27:00,
2013-02-05 23:33:00,31.6,28.7,30.00,NW,313,2.0,2.0,89,0.00,,,0.05,Wunderground v.1.15,2013-02-06 04:33:00,
2013-02-05 23:39:00,31.6,28.7,30.00,NW,313,1.0,2.0,89,0.00,,,0.05,Wunderground v.1.15,2013-02-06 04:39:00,
2013-02-05 23:44:00,31.6,28.7,30.00,NW,313,2.0,2.0,89,0.00,,,0.05,Wunderground v.1.15,2013-02-06 04:44:00,
2013-02-05 23:50:00,31.6,28.7,30.00,NW,314,1.0,2.0,89,0.00,,,0.05,Wunderground v.1.15,2013-02-06 04:50:00,
2013-02-05 23:55:00,31.6,28.7,30.00,NW,314,1.0,4.0,89,0.00,,,0.05,Wunderground v.1.15,2013-02-06 04:55:00,